sensor_id;sensor_type;location;lat;lon;timestamp;temperature;humidity
12015;DHT22;6066;48.138;16.402;2023-07-20T00:01:26;22.70;99.90
12015;DHT22;6066;48.138;16.402;2023-07-20T00:03:53;22.70;99.90
12015;DHT22;6066;48.138;16.402;2023-07-20T00:06:21;22.70;99.90
12015;DHT22;6066;48.138;16.402;2023-07-20T00:08:47;22.70;99.90
12015;DHT22;6066;48.138;16.402;2023-07-20T00:11:14;22.70;99.90
12015;DHT22;6066;48.138;16.402;2023-07-20T00:13:42;22.70;99.90
12015;DHT22;6066;48.138;16.402;2023-07-20T00:16:09;22.60;99.90
12015;DHT22;6066;48.138;16.402;2023-07-20T00:18:35;22.60;99.90
12015;DHT22;6066;48.138;16.402;2023-07-20T00:21:02;22.50;99.90
12015;DHT22;6066;48.138;16.402;2023-07-20T00:23:29;22.40;99.90
12015;DHT22;6066;48.138;16.402;2023-07-20T00:25:56;22.30;99.90
12015;DHT22;6066;48.138;16.402;2023-07-20T00:28:22;22.10;99.90
12015;DHT22;6066;48.138;16.402;2023-07-20T00:30:50;22.00;99.90
12015;DHT22;6066;48.138;16.402;2023-07-20T00:33:17;21.80;99.90
12015;DHT22;6066;48.138;16.402;2023-07-20T00:35:44;21.70;99.90
12015;DHT22;6066;48.138;16.402;2023-07-20T00:38:11;21.60;99.90
12015;DHT22;6066;48.138;16.402;2023-07-20T00:40:38;21.50;99.90
12015;DHT22;6066;48.138;16.402;2023-07-20T00:43:05;21.50;99.90
12015;DHT22;6066;48.138;16.402;2023-07-20T00:45:32;21.40;99.90
12015;DHT22;6066;48.138;16.402;2023-07-20T00:48:00;21.30;99.90
12015;DHT22;6066;48.138;16.402;2023-07-20T00:50:28;21.30;99.90
12015;DHT22;6066;48.138;16.402;2023-07-20T00:52:54;21.20;99.90
12015;DHT22;6066;48.138;16.402;2023-07-20T00:55:22;21.20;99.90
12015;DHT22;6066;48.138;16.402;2023-07-20T00:57:49;21.20;99.90
12015;DHT22;6066;48.138;16.402;2023-07-20T01:00:17;21.20;99.90
12015;DHT22;6066;48.138;16.402;2023-07-20T01:02:44;21.40;99.90
12015;DHT22;6066;48.138;16.402;2023-07-20T01:05:12;21.50;99.90
12015;DHT22;6066;48.138;16.402;2023-07-20T01:07:43;21.70;99.90
12015;DHT22;6066;48.138;16.402;2023-07-20T01:10:12;21.90;99.90
12015;DHT22;6066;48.138;16.402;2023-07-20T01:12:40;22.00;99.90
12015;DHT22;6066;48.138;16.402;2023-07-20T01:15:08;22.20;99.90
12015;DHT22;6066;48.138;16.402;2023-07-20T01:17:35;22.40;99.90
12015;DHT22;6066;48.138;16.402;2023-07-20T01:20:02;22.50;99.90
12015;DHT22;6066;48.138;16.402;2023-07-20T01:22:36;22.60;99.90
12015;DHT22;6066;48.138;16.402;2023-07-20T01:25:12;22.70;99.90
12015;DHT22;6066;48.138;16.402;2023-07-20T01:30:33;23.00;99.90
12015;DHT22;6066;48.138;16.402;2023-07-20T01:33:03;23.00;99.90
12015;DHT22;6066;48.138;16.402;2023-07-20T01:35:30;23.10;99.90
12015;DHT22;6066;48.138;16.402;2023-07-20T01:37:56;23.20;99.90
12015;DHT22;6066;48.138;16.402;2023-07-20T01:40:24;23.20;99.90
12015;DHT22;6066;48.138;16.402;2023-07-20T01:42:51;23.20;99.90
12015;DHT22;6066;48.138;16.402;2023-07-20T01:45:19;23.30;99.90
12015;DHT22;6066;48.138;16.402;2023-07-20T01:47:45;23.40;99.90
12015;DHT22;6066;48.138;16.402;2023-07-20T01:50:13;23.50;99.90
12015;DHT22;6066;48.138;16.402;2023-07-20T01:52:40;23.50;99.90
12015;DHT22;6066;48.138;16.402;2023-07-20T01:55:07;23.50;99.90
12015;DHT22;6066;48.138;16.402;2023-07-20T01:57:34;23.50;99.90
12015;DHT22;6066;48.138;16.402;2023-07-20T02:00:01;23.40;99.90
12015;DHT22;6066;48.138;16.402;2023-07-20T02:02:28;23.40;99.90
12015;DHT22;6066;48.138;16.402;2023-07-20T02:04:54;23.30;99.90
12015;DHT22;6066;48.138;16.402;2023-07-20T02:07:22;23.30;99.90
12015;DHT22;6066;48.138;16.402;2023-07-20T02:09:49;23.30;99.90
12015;DHT22;6066;48.138;16.402;2023-07-20T02:12:16;23.30;99.90
12015;DHT22;6066;48.138;16.402;2023-07-20T02:14:42;23.20;99.90
12015;DHT22;6066;48.138;16.402;2023-07-20T02:17:09;23.20;99.90
12015;DHT22;6066;48.138;16.402;2023-07-20T02:19:37;23.10;99.90
12015;DHT22;6066;48.138;16.402;2023-07-20T02:22:04;23.10;99.90
12015;DHT22;6066;48.138;16.402;2023-07-20T02:24:33;23.10;99.90
12015;DHT22;6066;48.138;16.402;2023-07-20T02:27:00;23.10;99.90
12015;DHT22;6066;48.138;16.402;2023-07-20T02:29:27;23.00;99.90
12015;DHT22;6066;48.138;16.402;2023-07-20T02:31:53;23.00;99.90
12015;DHT22;6066;48.138;16.402;2023-07-20T02:34:20;23.00;99.90
12015;DHT22;6066;48.138;16.402;2023-07-20T02:36:47;23.00;99.90
12015;DHT22;6066;48.138;16.402;2023-07-20T02:39:13;22.90;99.90
12015;DHT22;6066;48.138;16.402;2023-07-20T02:41:41;22.90;99.90
12015;DHT22;6066;48.138;16.402;2023-07-20T02:44:08;22.90;99.90
12015;DHT22;6066;48.138;16.402;2023-07-20T02:46:35;22.80;99.90
12015;DHT22;6066;48.138;16.402;2023-07-20T02:49:02;22.70;99.90
12015;DHT22;6066;48.138;16.402;2023-07-20T02:51:29;22.70;99.90
12015;DHT22;6066;48.138;16.402;2023-07-20T02:53:56;22.60;99.90
12015;DHT22;6066;48.138;16.402;2023-07-20T02:56:22;22.60;99.90
12015;DHT22;6066;48.138;16.402;2023-07-20T02:58:51;22.60;99.90
12015;DHT22;6066;48.138;16.402;2023-07-20T03:01:17;22.60;99.90
12015;DHT22;6066;48.138;16.402;2023-07-20T03:03:44;22.60;99.90
12015;DHT22;6066;48.138;16.402;2023-07-20T03:06:12;22.60;99.90
12015;DHT22;6066;48.138;16.402;2023-07-20T03:08:38;22.60;99.90
12015;DHT22;6066;48.138;16.402;2023-07-20T03:11:06;22.60;99.90
12015;DHT22;6066;48.138;16.402;2023-07-20T03:13:33;22.60;99.90
12015;DHT22;6066;48.138;16.402;2023-07-20T03:16:01;22.60;99.90
12015;DHT22;6066;48.138;16.402;2023-07-20T03:18:28;22.60;99.90
12015;DHT22;6066;48.138;16.402;2023-07-20T03:20:54;22.60;99.90
12015;DHT22;6066;48.138;16.402;2023-07-20T03:23:21;22.60;99.90
12015;DHT22;6066;48.138;16.402;2023-07-20T03:25:49;22.70;99.90
12015;DHT22;6066;48.138;16.402;2023-07-20T03:28:18;22.70;99.90
12015;DHT22;6066;48.138;16.402;2023-07-20T03:30:45;22.70;99.90
12015;DHT22;6066;48.138;16.402;2023-07-20T03:33:13;22.70;99.90
12015;DHT22;6066;48.138;16.402;2023-07-20T03:35:42;22.70;99.90
12015;DHT22;6066;48.138;16.402;2023-07-20T03:38:08;22.70;99.90
12015;DHT22;6066;48.138;16.402;2023-07-20T03:40:35;22.70;99.90
12015;DHT22;6066;48.138;16.402;2023-07-20T03:43:02;22.70;99.90
12015;DHT22;6066;48.138;16.402;2023-07-20T03:45:28;22.70;99.90
12015;DHT22;6066;48.138;16.402;2023-07-20T03:47:55;22.70;99.90
12015;DHT22;6066;48.138;16.402;2023-07-20T03:50:23;22.70;99.90
12015;DHT22;6066;48.138;16.402;2023-07-20T03:52:50;22.70;99.90
12015;DHT22;6066;48.138;16.402;2023-07-20T03:55:16;22.70;99.90
12015;DHT22;6066;48.138;16.402;2023-07-20T03:57:43;22.70;99.90
12015;DHT22;6066;48.138;16.402;2023-07-20T04:00:10;22.70;99.90
12015;DHT22;6066;48.138;16.402;2023-07-20T04:02:37;22.70;99.90
12015;DHT22;6066;48.138;16.402;2023-07-20T04:05:04;22.70;99.90
12015;DHT22;6066;48.138;16.402;2023-07-20T04:07:32;22.70;99.90
12015;DHT22;6066;48.138;16.402;2023-07-20T04:09:59;22.80;99.90
12015;DHT22;6066;48.138;16.402;2023-07-20T04:12:25;22.80;99.90
12015;DHT22;6066;48.138;16.402;2023-07-20T04:14:52;22.80;99.90
12015;DHT22;6066;48.138;16.402;2023-07-20T04:17:19;22.90;99.90
12015;DHT22;6066;48.138;16.402;2023-07-20T04:19:45;22.90;99.90
12015;DHT22;6066;48.138;16.402;2023-07-20T04:22:12;22.80;99.90
12015;DHT22;6066;48.138;16.402;2023-07-20T04:24:42;22.80;99.90
12015;DHT22;6066;48.138;16.402;2023-07-20T04:27:08;22.90;99.90
12015;DHT22;6066;48.138;16.402;2023-07-20T04:29:35;22.90;99.90
12015;DHT22;6066;48.138;16.402;2023-07-20T04:32:02;22.90;99.90
12015;DHT22;6066;48.138;16.402;2023-07-20T04:34:28;22.80;99.90
12015;DHT22;6066;48.138;16.402;2023-07-20T04:36:55;22.90;99.90
12015;DHT22;6066;48.138;16.402;2023-07-20T04:39:22;22.80;99.90
12015;DHT22;6066;48.138;16.402;2023-07-20T04:41:50;22.80;99.90
12015;DHT22;6066;48.138;16.402;2023-07-20T04:44:16;22.80;99.90
12015;DHT22;6066;48.138;16.402;2023-07-20T04:46:43;22.80;99.90
12015;DHT22;6066;48.138;16.402;2023-07-20T04:49:10;22.80;99.90
12015;DHT22;6066;48.138;16.402;2023-07-20T04:51:38;22.80;99.90
12015;DHT22;6066;48.138;16.402;2023-07-20T04:54:04;22.80;99.90
12015;DHT22;6066;48.138;16.402;2023-07-20T04:56:31;22.80;99.90
12015;DHT22;6066;48.138;16.402;2023-07-20T04:58:59;22.80;99.90
12015;DHT22;6066;48.138;16.402;2023-07-20T05:01:26;22.70;99.90
12015;DHT22;6066;48.138;16.402;2023-07-20T05:03:53;22.70;99.90
12015;DHT22;6066;48.138;16.402;2023-07-20T05:06:19;22.70;99.90
12015;DHT22;6066;48.138;16.402;2023-07-20T05:08:46;22.70;99.90
12015;DHT22;6066;48.138;16.402;2023-07-20T05:11:13;22.80;99.90
12015;DHT22;6066;48.138;16.402;2023-07-20T05:13:40;22.80;99.90
12015;DHT22;6066;48.138;16.402;2023-07-20T05:16:08;22.80;99.90
12015;DHT22;6066;48.138;16.402;2023-07-20T05:18:35;22.80;99.90
12015;DHT22;6066;48.138;16.402;2023-07-20T05:21:01;22.90;99.90
12015;DHT22;6066;48.138;16.402;2023-07-20T05:23:28;22.90;99.90
12015;DHT22;6066;48.138;16.402;2023-07-20T05:25:55;23.00;99.90
12015;DHT22;6066;48.138;16.402;2023-07-20T05:28:22;23.00;99.90
12015;DHT22;6066;48.138;16.402;2023-07-20T05:30:49;23.00;99.90
12015;DHT22;6066;48.138;16.402;2023-07-20T05:33:18;23.00;99.90
12015;DHT22;6066;48.138;16.402;2023-07-20T05:35:45;22.90;99.90
12015;DHT22;6066;48.138;16.402;2023-07-20T05:38:11;22.90;99.90
12015;DHT22;6066;48.138;16.402;2023-07-20T05:40:39;22.90;99.90
12015;DHT22;6066;48.138;16.402;2023-07-20T05:43:06;22.90;99.90
12015;DHT22;6066;48.138;16.402;2023-07-20T05:45:33;22.90;99.90
12015;DHT22;6066;48.138;16.402;2023-07-20T05:47:59;23.00;99.90
12015;DHT22;6066;48.138;16.402;2023-07-20T05:50:27;23.10;99.90
12015;DHT22;6066;48.138;16.402;2023-07-20T05:52:54;23.10;99.90
12015;DHT22;6066;48.138;16.402;2023-07-20T05:55:21;23.20;99.90
12015;DHT22;6066;48.138;16.402;2023-07-20T05:57:47;23.20;99.90
12015;DHT22;6066;48.138;16.402;2023-07-20T06:00:15;23.30;99.90
12015;DHT22;6066;48.138;16.402;2023-07-20T06:02:44;23.30;99.90
12015;DHT22;6066;48.138;16.402;2023-07-20T06:05:13;23.30;99.90
12015;DHT22;6066;48.138;16.402;2023-07-20T06:07:41;23.40;99.90
12015;DHT22;6066;48.138;16.402;2023-07-20T06:10:08;23.40;99.90
12015;DHT22;6066;48.138;16.402;2023-07-20T06:12:34;23.40;99.90
12015;DHT22;6066;48.138;16.402;2023-07-20T06:15:02;23.50;99.90
12015;DHT22;6066;48.138;16.402;2023-07-20T06:17:29;23.50;99.90
12015;DHT22;6066;48.138;16.402;2023-07-20T06:19:55;23.60;99.90
12015;DHT22;6066;48.138;16.402;2023-07-20T06:22:22;23.60;99.90
12015;DHT22;6066;48.138;16.402;2023-07-20T06:24:50;23.60;99.90
12015;DHT22;6066;48.138;16.402;2023-07-20T06:27:17;23.60;99.90
12015;DHT22;6066;48.138;16.402;2023-07-20T06:29:43;23.60;99.90
12015;DHT22;6066;48.138;16.402;2023-07-20T06:32:10;23.70;99.90
12015;DHT22;6066;48.138;16.402;2023-07-20T06:34:37;23.70;99.90
12015;DHT22;6066;48.138;16.402;2023-07-20T06:37:04;23.70;99.90
12015;DHT22;6066;48.138;16.402;2023-07-20T06:39:31;23.80;99.90
12015;DHT22;6066;48.138;16.402;2023-07-20T06:42:01;23.80;99.90
12015;DHT22;6066;48.138;16.402;2023-07-20T06:44:29;23.80;99.90
12015;DHT22;6066;48.138;16.402;2023-07-20T06:46:55;23.80;99.90
12015;DHT22;6066;48.138;16.402;2023-07-20T06:49:25;23.90;99.90
12015;DHT22;6066;48.138;16.402;2023-07-20T06:51:52;24.00;99.90
12015;DHT22;6066;48.138;16.402;2023-07-20T06:54:19;24.10;99.90
12015;DHT22;6066;48.138;16.402;2023-07-20T06:56:45;24.20;99.90
12015;DHT22;6066;48.138;16.402;2023-07-20T06:59:13;24.30;99.90
12015;DHT22;6066;48.138;16.402;2023-07-20T07:01:40;24.40;99.90
12015;DHT22;6066;48.138;16.402;2023-07-20T07:04:07;24.40;99.90
12015;DHT22;6066;48.138;16.402;2023-07-20T07:06:33;24.40;99.90
12015;DHT22;6066;48.138;16.402;2023-07-20T07:09:02;24.40;99.90
12015;DHT22;6066;48.138;16.402;2023-07-20T07:11:29;24.50;99.90
12015;DHT22;6066;48.138;16.402;2023-07-20T07:13:57;24.50;99.90
12015;DHT22;6066;48.138;16.402;2023-07-20T07:16:25;24.50;99.90
12015;DHT22;6066;48.138;16.402;2023-07-20T07:18:52;24.60;99.90
12015;DHT22;6066;48.138;16.402;2023-07-20T07:21:19;24.80;99.90
12015;DHT22;6066;48.138;16.402;2023-07-20T07:23:46;24.80;99.90
12015;DHT22;6066;48.138;16.402;2023-07-20T07:26:13;24.80;99.90
12015;DHT22;6066;48.138;16.402;2023-07-20T07:28:40;24.80;99.90
12015;DHT22;6066;48.138;16.402;2023-07-20T07:31:09;24.80;99.90
12015;DHT22;6066;48.138;16.402;2023-07-20T07:33:37;24.80;99.90
12015;DHT22;6066;48.138;16.402;2023-07-20T07:36:04;24.80;99.90
12015;DHT22;6066;48.138;16.402;2023-07-20T07:38:30;24.80;99.90
12015;DHT22;6066;48.138;16.402;2023-07-20T07:40:57;24.90;99.90
12015;DHT22;6066;48.138;16.402;2023-07-20T07:43:24;25.00;99.90
12015;DHT22;6066;48.138;16.402;2023-07-20T07:45:53;25.10;99.90
12015;DHT22;6066;48.138;16.402;2023-07-20T07:48:20;25.10;99.90
12015;DHT22;6066;48.138;16.402;2023-07-20T07:50:51;25.10;99.90
12015;DHT22;6066;48.138;16.402;2023-07-20T07:53:18;25.20;99.90
12015;DHT22;6066;48.138;16.402;2023-07-20T07:55:45;25.30;99.90
12015;DHT22;6066;48.138;16.402;2023-07-20T07:58:15;25.40;99.90
12015;DHT22;6066;48.138;16.402;2023-07-20T08:00:42;25.50;99.90
12015;DHT22;6066;48.138;16.402;2023-07-20T08:03:09;25.50;99.90
12015;DHT22;6066;48.138;16.402;2023-07-20T08:05:36;25.60;99.90
12015;DHT22;6066;48.138;16.402;2023-07-20T08:08:04;25.60;99.90
12015;DHT22;6066;48.138;16.402;2023-07-20T08:10:31;25.60;99.90
12015;DHT22;6066;48.138;16.402;2023-07-20T08:12:58;25.50;99.90
12015;DHT22;6066;48.138;16.402;2023-07-20T08:15:24;25.60;99.90
12015;DHT22;6066;48.138;16.402;2023-07-20T08:17:51;25.60;99.90
12015;DHT22;6066;48.138;16.402;2023-07-20T08:20:18;25.80;99.90
12015;DHT22;6066;48.138;16.402;2023-07-20T08:22:47;25.90;99.90
12015;DHT22;6066;48.138;16.402;2023-07-20T08:25:15;25.80;99.90
12015;DHT22;6066;48.138;16.402;2023-07-20T08:27:42;25.70;99.90
12015;DHT22;6066;48.138;16.402;2023-07-20T08:30:11;25.70;99.90
12015;DHT22;6066;48.138;16.402;2023-07-20T08:32:38;25.50;99.90
12015;DHT22;6066;48.138;16.402;2023-07-20T08:35:05;25.40;99.90
12015;DHT22;6066;48.138;16.402;2023-07-20T08:37:32;25.50;99.90
12015;DHT22;6066;48.138;16.402;2023-07-20T08:39:58;25.60;99.90
12015;DHT22;6066;48.138;16.402;2023-07-20T08:42:30;25.80;99.90
12015;DHT22;6066;48.138;16.402;2023-07-20T08:44:56;25.80;99.90
12015;DHT22;6066;48.138;16.402;2023-07-20T08:47:23;25.80;99.90
12015;DHT22;6066;48.138;16.402;2023-07-20T08:49:51;25.90;99.90
12015;DHT22;6066;48.138;16.402;2023-07-20T08:52:19;26.00;99.90
12015;DHT22;6066;48.138;16.402;2023-07-20T08:54:45;26.00;99.90
12015;DHT22;6066;48.138;16.402;2023-07-20T08:57:13;26.20;99.90
12015;DHT22;6066;48.138;16.402;2023-07-20T08:59:41;26.30;99.90
12015;DHT22;6066;48.138;16.402;2023-07-20T09:02:08;26.40;99.90
12015;DHT22;6066;48.138;16.402;2023-07-20T09:04:38;26.30;99.90
12015;DHT22;6066;48.138;16.402;2023-07-20T09:07:06;26.10;99.90
12015;DHT22;6066;48.138;16.402;2023-07-20T09:09:33;25.90;99.90
12015;DHT22;6066;48.138;16.402;2023-07-20T09:12:06;26.00;99.90
12015;DHT22;6066;48.138;16.402;2023-07-20T09:14:39;26.10;99.90
12015;DHT22;6066;48.138;16.402;2023-07-20T09:17:07;26.30;99.90
12015;DHT22;6066;48.138;16.402;2023-07-20T09:19:38;26.50;99.90
12015;DHT22;6066;48.138;16.402;2023-07-20T09:22:05;26.60;99.90
12015;DHT22;6066;48.138;16.402;2023-07-20T09:24:32;26.70;99.90
12015;DHT22;6066;48.138;16.402;2023-07-20T09:26:59;26.80;99.90
12015;DHT22;6066;48.138;16.402;2023-07-20T09:29:29;27.00;99.90
12015;DHT22;6066;48.138;16.402;2023-07-20T09:31:58;27.10;99.90
12015;DHT22;6066;48.138;16.402;2023-07-20T09:34:26;27.40;99.90
12015;DHT22;6066;48.138;16.402;2023-07-20T09:36:53;27.70;99.90
12015;DHT22;6066;48.138;16.402;2023-07-20T09:39:20;27.70;99.90
12015;DHT22;6066;48.138;16.402;2023-07-20T09:41:46;27.80;99.90
12015;DHT22;6066;48.138;16.402;2023-07-20T09:44:14;27.90;99.90
12015;DHT22;6066;48.138;16.402;2023-07-20T09:46:41;28.00;99.90
12015;DHT22;6066;48.138;16.402;2023-07-20T09:49:08;28.10;99.90
12015;DHT22;6066;48.138;16.402;2023-07-20T09:51:38;28.20;99.90
12015;DHT22;6066;48.138;16.402;2023-07-20T09:54:06;28.40;99.90
12015;DHT22;6066;48.138;16.402;2023-07-20T09:56:34;28.60;99.90
12015;DHT22;6066;48.138;16.402;2023-07-20T09:59:03;28.80;99.90
12015;DHT22;6066;48.138;16.402;2023-07-20T10:01:29;28.90;99.90
12015;DHT22;6066;48.138;16.402;2023-07-20T10:03:59;28.90;99.60
12015;DHT22;6066;48.138;16.402;2023-07-20T10:06:28;28.90;99.90
12015;DHT22;6066;48.138;16.402;2023-07-20T10:09:02;29.00;99.90
12015;DHT22;6066;48.138;16.402;2023-07-20T10:11:29;29.00;99.90
12015;DHT22;6066;48.138;16.402;2023-07-20T10:13:58;29.10;99.90
12015;DHT22;6066;48.138;16.402;2023-07-20T10:16:26;29.00;99.90
12015;DHT22;6066;48.138;16.402;2023-07-20T10:18:55;29.10;99.90
12015;DHT22;6066;48.138;16.402;2023-07-20T10:21:25;29.20;99.60
12015;DHT22;6066;48.138;16.402;2023-07-20T10:23:52;29.30;99.70
12015;DHT22;6066;48.138;16.402;2023-07-20T10:26:22;29.40;99.90
12015;DHT22;6066;48.138;16.402;2023-07-20T10:28:48;29.50;99.90
12015;DHT22;6066;48.138;16.402;2023-07-20T10:31:18;29.50;99.90
12015;DHT22;6066;48.138;16.402;2023-07-20T10:33:45;29.40;99.80
12015;DHT22;6066;48.138;16.402;2023-07-20T10:36:12;29.30;99.40
12015;DHT22;6066;48.138;16.402;2023-07-20T10:38:39;29.20;99.80
12015;DHT22;6066;48.138;16.402;2023-07-20T10:41:15;28.90;99.70
12015;DHT22;6066;48.138;16.402;2023-07-20T10:43:44;28.70;99.80
12015;DHT22;6066;48.138;16.402;2023-07-20T10:46:11;28.60;99.90
12015;DHT22;6066;48.138;16.402;2023-07-20T10:51:20;28.90;99.30
12015;DHT22;6066;48.138;16.402;2023-07-20T10:53:50;28.90;99.80
12015;DHT22;6066;48.138;16.402;2023-07-20T10:56:19;28.80;99.90
12015;DHT22;6066;48.138;16.402;2023-07-20T10:58:47;28.70;99.90
12015;DHT22;6066;48.138;16.402;2023-07-20T11:01:14;28.60;99.90
12015;DHT22;6066;48.138;16.402;2023-07-20T11:03:42;28.50;99.90
12015;DHT22;6066;48.138;16.402;2023-07-20T11:08:55;28.20;99.80
12015;DHT22;6066;48.138;16.402;2023-07-20T11:11:23;28.10;99.80
12015;DHT22;6066;48.138;16.402;2023-07-20T11:13:58;28.00;99.90
12015;DHT22;6066;48.138;16.402;2023-07-20T11:16:36;28.00;99.80
12015;DHT22;6066;48.138;16.402;2023-07-20T11:19:03;28.00;99.40
12015;DHT22;6066;48.138;16.402;2023-07-20T11:21:35;28.20;99.90
12015;DHT22;6066;48.138;16.402;2023-07-20T11:24:02;28.30;99.90
12015;DHT22;6066;48.138;16.402;2023-07-20T11:26:29;28.40;99.90
12015;DHT22;6066;48.138;16.402;2023-07-20T11:28:58;28.40;99.40
12015;DHT22;6066;48.138;16.402;2023-07-20T11:31:24;28.50;99.50
12015;DHT22;6066;48.138;16.402;2023-07-20T11:33:51;28.40;99.20
12015;DHT22;6066;48.138;16.402;2023-07-20T11:36:18;28.60;99.00
12015;DHT22;6066;48.138;16.402;2023-07-20T11:38:45;28.80;98.80
12015;DHT22;6066;48.138;16.402;2023-07-20T11:41:12;28.90;98.80
12015;DHT22;6066;48.138;16.402;2023-07-20T11:43:39;29.10;98.70
12015;DHT22;6066;48.138;16.402;2023-07-20T11:46:08;29.20;97.90
12015;DHT22;6066;48.138;16.402;2023-07-20T11:48:35;29.30;98.30
12015;DHT22;6066;48.138;16.402;2023-07-20T11:51:02;29.30;99.50
12015;DHT22;6066;48.138;16.402;2023-07-20T11:53:28;29.50;97.90
12015;DHT22;6066;48.138;16.402;2023-07-20T11:55:55;29.60;98.30
12015;DHT22;6066;48.138;16.402;2023-07-20T11:58:23;29.80;98.20
12015;DHT22;6066;48.138;16.402;2023-07-20T12:00:49;29.90;97.60
12015;DHT22;6066;48.138;16.402;2023-07-20T12:03:17;30.00;97.70
12015;DHT22;6066;48.138;16.402;2023-07-20T12:05:44;29.90;98.50
12015;DHT22;6066;48.138;16.402;2023-07-20T12:08:11;29.80;97.50
12015;DHT22;6066;48.138;16.402;2023-07-20T12:10:39;29.80;97.20
12015;DHT22;6066;48.138;16.402;2023-07-20T12:13:09;29.70;97.70
12015;DHT22;6066;48.138;16.402;2023-07-20T12:15:36;29.70;97.40
12015;DHT22;6066;48.138;16.402;2023-07-20T12:18:04;29.50;97.10
12015;DHT22;6066;48.138;16.402;2023-07-20T12:20:33;29.30;97.50
12015;DHT22;6066;48.138;16.402;2023-07-20T12:23:01;29.10;97.90
12015;DHT22;6066;48.138;16.402;2023-07-20T12:25:36;28.90;97.90
12015;DHT22;6066;48.138;16.402;2023-07-20T12:28:04;28.90;98.10
12015;DHT22;6066;48.138;16.402;2023-07-20T12:30:31;29.00;98.50
12015;DHT22;6066;48.138;16.402;2023-07-20T12:32:58;29.30;97.20
12015;DHT22;6066;48.138;16.402;2023-07-20T12:35:25;29.40;97.60
12015;DHT22;6066;48.138;16.402;2023-07-20T12:37:53;29.60;97.70
12015;DHT22;6066;48.138;16.402;2023-07-20T12:40:22;29.60;98.40
12015;DHT22;6066;48.138;16.402;2023-07-20T12:42:48;29.70;96.60
12015;DHT22;6066;48.138;16.402;2023-07-20T12:45:15;29.90;96.70
12015;DHT22;6066;48.138;16.402;2023-07-20T12:47:42;29.80;95.90
12015;DHT22;6066;48.138;16.402;2023-07-20T12:50:10;29.70;96.60
12015;DHT22;6066;48.138;16.402;2023-07-20T12:52:40;29.60;96.60
12015;DHT22;6066;48.138;16.402;2023-07-20T12:55:09;29.60;97.20
12015;DHT22;6066;48.138;16.402;2023-07-20T12:57:36;29.50;96.40
12015;DHT22;6066;48.138;16.402;2023-07-20T13:00:03;29.60;95.50
12015;DHT22;6066;48.138;16.402;2023-07-20T13:02:29;29.70;96.40
12015;DHT22;6066;48.138;16.402;2023-07-20T13:04:56;29.70;95.50
12015;DHT22;6066;48.138;16.402;2023-07-20T13:07:29;29.70;95.60
12015;DHT22;6066;48.138;16.402;2023-07-20T13:09:56;29.70;96.70
12015;DHT22;6066;48.138;16.402;2023-07-20T13:12:24;29.90;96.30
12015;DHT22;6066;48.138;16.402;2023-07-20T13:14:51;29.70;95.80
12015;DHT22;6066;48.138;16.402;2023-07-20T13:17:17;29.70;95.60
12015;DHT22;6066;48.138;16.402;2023-07-20T13:19:45;29.80;95.70
12015;DHT22;6066;48.138;16.402;2023-07-20T13:22:12;29.80;96.00
12015;DHT22;6066;48.138;16.402;2023-07-20T13:24:40;29.90;96.50
12015;DHT22;6066;48.138;16.402;2023-07-20T13:27:06;30.10;95.60
12015;DHT22;6066;48.138;16.402;2023-07-20T13:29:35;30.10;95.10
12015;DHT22;6066;48.138;16.402;2023-07-20T13:32:01;29.90;95.00
12015;DHT22;6066;48.138;16.402;2023-07-20T13:34:29;29.70;95.60
12015;DHT22;6066;48.138;16.402;2023-07-20T13:36:56;29.70;94.90
12015;DHT22;6066;48.138;16.402;2023-07-20T13:39:24;29.80;95.40
12015;DHT22;6066;48.138;16.402;2023-07-20T13:41:55;29.90;95.20
12015;DHT22;6066;48.138;16.402;2023-07-20T13:44:22;30.00;95.70
12015;DHT22;6066;48.138;16.402;2023-07-20T13:46:52;30.00;95.80
12015;DHT22;6066;48.138;16.402;2023-07-20T13:49:20;30.10;95.10
12015;DHT22;6066;48.138;16.402;2023-07-20T13:51:47;30.10;94.30
12015;DHT22;6066;48.138;16.402;2023-07-20T13:54:14;30.10;94.70
12015;DHT22;6066;48.138;16.402;2023-07-20T13:56:41;30.10;95.10
12015;DHT22;6066;48.138;16.402;2023-07-20T13:59:07;30.10;95.30
12015;DHT22;6066;48.138;16.402;2023-07-20T14:01:34;30.10;94.80
12015;DHT22;6066;48.138;16.402;2023-07-20T14:04:02;30.20;95.00
12015;DHT22;6066;48.138;16.402;2023-07-20T14:06:29;30.20;94.70
12015;DHT22;6066;48.138;16.402;2023-07-20T14:08:56;30.20;95.50
12015;DHT22;6066;48.138;16.402;2023-07-20T14:11:23;30.30;94.60
12015;DHT22;6066;48.138;16.402;2023-07-20T14:13:51;30.30;94.00
12015;DHT22;6066;48.138;16.402;2023-07-20T14:16:18;30.40;93.30
12015;DHT22;6066;48.138;16.402;2023-07-20T14:18:45;30.30;94.50
12015;DHT22;6066;48.138;16.402;2023-07-20T14:21:15;30.30;94.20
12015;DHT22;6066;48.138;16.402;2023-07-20T14:23:44;30.30;93.70
12015;DHT22;6066;48.138;16.402;2023-07-20T14:26:16;30.40;94.00
12015;DHT22;6066;48.138;16.402;2023-07-20T14:28:43;30.40;93.30
12015;DHT22;6066;48.138;16.402;2023-07-20T14:31:10;30.30;93.30
12015;DHT22;6066;48.138;16.402;2023-07-20T14:33:37;30.10;93.30
12015;DHT22;6066;48.138;16.402;2023-07-20T14:36:03;30.00;94.70
12015;DHT22;6066;48.138;16.402;2023-07-20T14:38:33;30.10;93.70
12015;DHT22;6066;48.138;16.402;2023-07-20T14:41:00;30.00;93.00
12015;DHT22;6066;48.138;16.402;2023-07-20T14:43:26;30.00;93.90
12015;DHT22;6066;48.138;16.402;2023-07-20T14:45:53;30.00;94.30
12015;DHT22;6066;48.138;16.402;2023-07-20T14:48:20;30.00;94.70
12015;DHT22;6066;48.138;16.402;2023-07-20T14:50:46;30.10;94.90
12015;DHT22;6066;48.138;16.402;2023-07-20T14:53:13;30.10;94.80
12015;DHT22;6066;48.138;16.402;2023-07-20T14:55:42;30.10;94.30
12015;DHT22;6066;48.138;16.402;2023-07-20T14:58:09;30.10;94.20
12015;DHT22;6066;48.138;16.402;2023-07-20T15:00:36;30.00;94.40
12015;DHT22;6066;48.138;16.402;2023-07-20T15:03:03;30.00;94.30
12015;DHT22;6066;48.138;16.402;2023-07-20T15:05:31;29.90;94.00
12015;DHT22;6066;48.138;16.402;2023-07-20T15:07:57;29.80;93.70
12015;DHT22;6066;48.138;16.402;2023-07-20T15:10:24;29.70;93.90
12015;DHT22;6066;48.138;16.402;2023-07-20T15:12:52;29.60;94.70
12015;DHT22;6066;48.138;16.402;2023-07-20T15:15:19;29.50;94.40
12015;DHT22;6066;48.138;16.402;2023-07-20T15:17:46;29.50;94.60
12015;DHT22;6066;48.138;16.402;2023-07-20T15:20:15;29.50;95.10
12015;DHT22;6066;48.138;16.402;2023-07-20T15:22:42;29.60;94.20
12015;DHT22;6066;48.138;16.402;2023-07-20T15:25:09;29.60;94.50
12015;DHT22;6066;48.138;16.402;2023-07-20T15:27:37;29.50;94.20
12015;DHT22;6066;48.138;16.402;2023-07-20T15:30:06;29.50;94.20
12015;DHT22;6066;48.138;16.402;2023-07-20T15:32:38;29.40;94.40
12015;DHT22;6066;48.138;16.402;2023-07-20T15:35:06;29.40;95.10
12015;DHT22;6066;48.138;16.402;2023-07-20T15:37:32;29.30;94.30
12015;DHT22;6066;48.138;16.402;2023-07-20T15:39:59;29.30;94.40